Cape Town, South Africa

6:36 AM SAST on August 25, 2016 (GMT +0200)
Cape Town International | | Change Station

Elev 138 ft 33.96 °S, 18.60 °E | Updated 6 minutes ago

Patches of Fog
Patches Fog
43 °F
Feels Like 43 °F
N
2
Wind Variable Wind from SE

Today
High -- | Low -- °F
--% Chance of Precip.
Yesterday
High -- | Low -- °F
Precip. -- in
Pressure 30.12 in
Visibility 0.7 miles
Clouds
Dew Point 41 °F
Humidity 93%
Rainfall 0.00 in
Snow Depth Not available.
7:12 AM 6:23 PM
Waning Gibbous, 50% visible
SPECI FACT 250430Z 14002KT 1200 R19/0375V0550N BCFG NSC 06/05 Q1020 BECMG 2000
Pressure 30.12 in
Visibility 0.7 miles
Clouds
Dew Point 41 °F
Humidity 93%
Rainfall 0.00 in
Snow Depth Not available.
7:12 AM 6:23 PM
Waning Gibbous, 50% visible
SPECI FACT 250430Z 14002KT 1200 R19/0375V0550N BCFG NSC 06/05 Q1020 BECMG 2000

10-Day Weather Forecast

No radar image for this location.
×

Almanac

Astronomy

Aug. 25, 2016 Rise Set
Actual Time
Civil Twilight
Nautical Twilight
Astronomical Twilight
Moon
Length of Visible Light
Length of Day
Tomorrow will be .
, % of the Moon is Illuminated

Today's Extremes

Country Highs Country Lows

Community

WunderPhotos

Upload Photos

1,934,796 photos uploaded!

WunderBlog® & News

Nearby

Air Quality

  Air Quality AQ Index Pollutant
Not available.

Snow Depth

Station Depth Elevation

Earthquake Activity

City Distance Mag. Time & Date
Minimum magnitude displayed is 2.5.

Coastal Water Temperatures

Place Temperature

Stations

Nearby Weather Stations

Station Location Temp. Windchill Dew Point Humidity Wind Precip. Elev Updated Type